Time;durP1;ratioP1;P1;durP2;ratioP2;P2;SDS_P1;SDS_P2;PMS_P1;PMS_P2;Temp;Humidity;BMP_temperature;BMP_pressure;BME280_temperature;BME280_humidity;BME280_pressure;Samples;Min_cycle;Max_cycle;Signal;HPM_P1;HPM_P2
2022/08/07 00:02:06;;;;;;;3.10;2.70;;;14.30;99.90;;;;;;5095236;28;20205;-88
2022/08/07 00:04:33;;;;;;;2.67;2.47;;;14.30;99.90;;;;;;5095103;28;20204;-87
2022/08/07 00:07:01;;;;;;;3.63;2.37;;;14.30;99.90;;;;;;5095190;28;20600;-88
2022/08/07 00:09:28;;;;;;;2.90;2.60;;;14.30;99.90;;;;;;5095145;28;20236;-86
2022/08/07 00:11:55;;;;;;;2.97;2.50;;;14.20;99.90;;;;;;5097447;28;20224;-89
2022/08/07 00:14:22;;;;;;;2.20;2.00;;;14.20;99.90;;;;;;5095943;28;20223;-87
2022/08/07 00:16:49;;;;;;;2.90;2.23;;;14.20;99.90;;;;;;5096358;28;20216;-87
2022/08/07 00:19:16;;;;;;;3.30;2.23;;;14.20;99.90;;;;;;5095578;28;20214;-88
2022/08/07 00:21:43;;;;;;;2.80;2.43;;;14.10;99.90;;;;;;5096268;28;20211;-87
2022/08/07 00:24:11;;;;;;;2.90;2.47;;;14.10;99.90;;;;;;5109482;28;20280;-90
2022/08/07 00:26:38;;;;;;;3.07;2.77;;;14.10;99.90;;;;;;5110707;28;20193;-90
2022/08/07 00:29:05;;;;;;;2.60;2.23;;;14.10;99.90;;;;;;5109119;28;20249;-90
2022/08/07 00:31:31;;;;;;;3.93;2.60;;;14.10;99.90;;;;;;5112396;28;20173;-87
2022/08/07 00:33:58;;;;;;;4.00;2.87;;;14.10;99.90;;;;;;5109392;28;20224;-88
2022/08/07 00:36:25;;;;;;;2.73;2.53;;;14.10;99.90;;;;;;5109314;28;20213;-88
2022/08/07 00:38:52;;;;;;;3.00;2.60;;;14.00;99.90;;;;;;5100639;28;20280;-88
2022/08/07 00:41:27;;;;;;;3.00;2.70;;;14.00;99.90;;;;;;5082077;28;20218;-87
2022/08/07 00:43:54;;;;;;;2.43;2.10;;;14.00;99.90;;;;;;5085505;28;20211;-88
2022/08/07 00:46:21;;;;;;;3.00;2.60;;;14.00;99.90;;;;;;5095088;28;20200;-88
2022/08/07 00:48:48;;;;;;;2.60;2.03;;;13.90;99.90;;;;;;5095966;28;20284;-87
2022/08/07 00:51:15;;;;;;;3.10;2.53;;;13.90;99.90;;;;;;5097540;28;20207;-88
2022/08/07 00:53:43;;;;;;;3.63;2.87;;;13.90;99.90;;;;;;5080695;28;20232;-87
2022/08/07 00:56:11;;;;;;;4.63;2.87;;;13.90;99.90;;;;;;5078281;28;20217;-87
2022/08/07 00:58:42;;;;;;;4.10;3.03;;;13.90;99.90;;;;;;5098376;28;20280;-88
2022/08/07 01:01:09;;;;;;;3.13;2.70;;;13.90;99.90;;;;;;5096527;28;20201;-88
2022/08/07 01:03:36;;;;;;;3.60;2.63;;;13.90;99.90;;;;;;5077811;28;20193;-86
2022/08/07 01:06:04;;;;;;;3.63;2.73;;;13.90;99.90;;;;;;5077850;28;20654;-88
2022/08/07 01:08:31;;;;;;;5.23;2.47;;;13.90;99.90;;;;;;5078632;28;20285;-86
2022/08/07 01:10:59;;;;;;;2.90;2.60;;;13.80;99.90;;;;;;5097849;28;20242;-88
2022/08/07 01:13:26;;;;;;;2.73;2.53;;;13.80;99.90;;;;;;5097479;28;20938;-89
2022/08/07 01:15:56;;;;;;;2.77;2.57;;;13.80;99.90;;;;;;5090406;28;20220;-88
2022/08/07 01:18:24;;;;;;;2.70;2.43;;;13.80;99.90;;;;;;5077813;28;20212;-91
2022/08/07 01:21:05;;;;;;;2.80;2.30;;;13.80;99.90;;;;;;5078125;28;20201;-89
2022/08/07 01:23:32;;;;;;;2.93;2.47;;;13.70;99.90;;;;;;5080011;28;20199;-89
2022/08/07 01:26:00;;;;;;;2.83;2.17;;;13.70;99.90;;;;;;5088637;28;20268;-90
2022/08/07 01:28:28;;;;;;;3.30;2.70;;;13.70;99.90;;;;;;5097724;28;20192;-90
2022/08/07 01:30:56;;;;;;;2.83;2.53;;;13.60;99.90;;;;;;5097828;28;20205;-90
2022/08/07 01:33:23;;;;;;;2.93;2.37;;;13.60;99.90;;;;;;5097661;28;20216;-91
2022/08/07 01:35:50;;;;;;;2.67;2.33;;;13.60;99.90;;;;;;5098195;28;20207;-90
2022/08/07 01:38:19;;;;;;;2.73;2.43;;;13.60;99.90;;;;;;5097634;28;20315;-90
2022/08/07 01:40:49;;;;;;;3.00;2.63;;;13.60;99.90;;;;;;5097636;28;20863;-90
2022/08/07 01:43:19;;;;;;;2.17;1.97;;;13.60;99.90;;;;;;5097325;28;20264;-86
2022/08/07 01:45:46;;;;;;;2.40;2.20;;;13.50;99.90;;;;;;5097503;28;20788;-91
2022/08/07 01:48:13;;;;;;;2.97;2.40;;;13.50;99.90;;;;;;5097402;28;20287;-92
2022/08/07 01:50:42;;;;;;;2.13;1.93;;;13.50;99.90;;;;;;5095277;28;20204;-90
2022/08/07 01:53:10;;;;;;;2.97;2.07;;;13.50;99.90;;;;;;5077303;28;20193;-91
2022/08/07 01:55:45;;;;;;;2.90;2.63;;;13.50;99.90;;;;;;5077401;28;20194;-91
2022/08/07 01:58:16;;;;;;;2.93;2.37;;;13.40;99.90;;;;;;5096537;28;20252;-91
2022/08/07 02:00:44;;;;;;;2.53;2.23;;;13.40;99.90;;;;;;5097246;28;20211;-87
2022/08/07 02:03:15;;;;;;;3.07;2.43;;;13.40;99.90;;;;;;5097339;28;20254;-90
2022/08/07 02:05:48;;;;;;;3.60;2.30;;;13.40;99.90;;;;;;5097047;28;20232;-89
2022/08/07 02:08:18;;;;;;;2.60;2.40;;;13.30;99.90;;;;;;5095606;28;20223;-88
2022/08/07 02:10:51;;;;;;;2.67;2.47;;;13.30;99.90;;;;;;5095293;28;20239;-91
2022/08/07 02:13:21;;;;;;;3.80;2.20;;;13.30;99.90;;;;;;5094267;28;20701;-88
2022/08/07 02:15:51;;;;;;;2.80;2.30;;;13.30;99.90;;;;;;5096616;28;20210;-88
2022/08/07 02:18:20;;;;;;;2.10;1.90;;;13.20;99.90;;;;;;5096433;28;20195;-89
2022/08/07 02:20:51;;;;;;;2.63;2.43;;;13.20;99.90;;;;;;5096433;28;20204;-88
2022/08/07 02:23:19;;;;;;;2.87;2.43;;;13.20;99.90;;;;;;5095675;28;20287;-87
2022/08/07 02:25:48;;;;;;;3.57;2.40;;;13.20;99.90;;;;;;5093931;28;20551;-88
2022/08/07 02:28:17;;;;;;;2.83;2.60;;;13.10;99.90;;;;;;5094742;28;20232;-88
2022/08/07 02:30:45;;;;;;;2.37;2.17;;;13.10;99.90;;;;;;5079908;28;20649;-87
2022/08/07 02:33:15;;;;;;;2.40;2.20;;;13.10;99.90;;;;;;5095015;28;20283;-87
2022/08/07 02:35:43;;;;;;;2.43;2.23;;;13.10;99.90;;;;;;5095796;28;20216;-88
2022/08/07 02:38:12;;;;;;;3.27;2.70;;;13.00;99.90;;;;;;5096354;28;20258;-90
2022/08/07 02:40:40;;;;;;;3.33;2.30;;;13.00;99.90;;;;;;5075742;28;20220;-90
2022/08/07 02:43:09;;;;;;;3.97;2.40;;;13.00;99.90;;;;;;5075981;28;20605;-88
2022/08/07 02:45:41;;;;;;;2.70;2.23;;;13.00;99.90;;;;;;5076425;28;20232;-87
2022/08/07 02:48:08;;;;;;;2.30;2.10;;;12.90;99.90;;;;;;5075554;28;20211;-88
2022/08/07 02:50:40;;;;;;;2.33;2.13;;;12.90;99.90;;;;;;5075831;28;20197;-88
2022/08/07 02:53:10;;;;;;;2.40;2.20;;;12.90;99.90;;;;;;5085927;28;20306;-88
2022/08/07 02:55:41;;;;;;;2.93;2.73;;;12.90;99.90;;;;;;5095747;28;20643;-88
2022/08/07 02:58:13;;;;;;;2.63;2.37;;;12.90;99.90;;;;;;5095760;28;20204;-87
2022/08/07 03:00:42;;;;;;;3.13;2.17;;;12.80;99.90;;;;;;5096031;28;20207;-87
2022/08/07 03:03:11;;;;;;;2.37;2.13;;;12.80;99.90;;;;;;5095371;28;20618;-88
2022/08/07 03:05:39;;;;;;;3.10;2.43;;;12.80;99.90;;;;;;5095718;28;20699;-88
2022/08/07 03:08:08;;;;;;;2.20;2.00;;;12.80;99.90;;;;;;5094963;28;20205;-88
2022/08/07 03:10:35;;;;;;;3.33;2.30;;;12.80;99.90;;;;;;5095589;28;20311;-88
2022/08/07 03:13:03;;;;;;;4.00;2.53;;;12.70;99.90;;;;;;5094894;28;20188;-88
2022/08/07 03:15:32;;;;;;;2.67;2.20;;;12.70;99.90;;;;;;5095564;28;20220;-88
2022/08/07 03:18:00;;;;;;;3.00;2.00;;;12.70;99.90;;;;;;5095718;28;20292;-88
2022/08/07 03:20:27;;;;;;;3.10;2.77;;;12.70;99.90;;;;;;5095508;28;20201;-88
2022/08/07 03:22:55;;;;;;;2.60;2.37;;;12.70;99.90;;;;;;5095436;28;20596;-87
2022/08/07 03:25:23;;;;;;;2.67;2.47;;;12.60;99.90;;;;;;5095424;28;20252;-88
2022/08/07 03:27:51;;;;;;;2.43;2.23;;;12.60;99.90;;;;;;5095682;28;20281;-87
2022/08/07 03:30:19;;;;;;;2.40;2.20;;;12.60;99.90;;;;;;5095236;28;20584;-89
2022/08/07 03:32:52;;;;;;;2.97;2.20;;;12.60;99.90;;;;;;5095956;28;20330;-87
2022/08/07 03:35:23;;;;;;;2.33;2.13;;;12.60;99.90;;;;;;5094966;28;20307;-88
2022/08/07 03:37:54;;;;;;;2.60;2.40;;;12.50;99.90;;;;;;5095125;28;20242;-88
2022/08/07 03:40:24;;;;;;;2.93;2.63;;;12.50;99.90;;;;;;5095418;28;20208;-89
2022/08/07 03:42:54;;;;;;;2.93;2.60;;;12.50;99.90;;;;;;5095641;28;20195;-88
2022/08/07 03:45:22;;;;;;;3.50;2.37;;;12.50;99.90;;;;;;5095051;28;20295;-88
2022/08/07 03:47:52;;;;;;;2.80;2.13;;;12.50;99.90;;;;;;5095252;28;20283;-90
2022/08/07 03:50:20;;;;;;;3.10;2.60;;;12.50;99.90;;;;;;5093512;28;20203;-88
2022/08/07 03:52:48;;;;;;;2.93;2.53;;;12.40;99.90;;;;;;5094858;28;20296;-89
2022/08/07 03:55:15;;;;;;;2.90;2.40;;;12.40;99.90;;;;;;5095000;28;20663;-89
2022/08/07 03:57:43;;;;;;;3.53;2.60;;;12.40;99.90;;;;;;5095400;28;20262;-88
2022/08/07 04:00:11;;;;;;;2.50;2.30;;;12.40;99.90;;;;;;5095197;28;20324;-89
2022/08/07 04:02:41;;;;;;;2.63;2.43;;;12.40;99.90;;;;;;5094915;28;20204;-90
2022/08/07 04:05:10;;;;;;;2.60;2.40;;;12.40;99.90;;;;;;5094744;28;20477;-89
2022/08/07 04:07:37;;;;;;;3.13;2.47;;;12.40;99.90;;;;;;5093949;28;20299;-89
2022/08/07 04:10:05;;;;;;;2.70;2.50;;;12.40;99.90;;;;;;5093334;28;20241;-89
2022/08/07 04:12:33;;;;;;;2.60;2.30;;;12.40;99.90;;;;;;5094766;28;20204;-88
2022/08/07 04:15:00;;;;;;;2.70;2.50;;;12.40;99.90;;;;;;5094588;28;20232;-89
2022/08/07 04:17:27;;;;;;;4.13;2.83;;;12.30;99.90;;;;;;5094669;28;20205;-88
2022/08/07 04:19:54;;;;;;;2.60;2.40;;;12.30;99.90;;;;;;5094886;28;20275;-89
2022/08/07 04:22:24;;;;;;;2.50;2.30;;;12.30;99.90;;;;;;5094643;28;20271;-89
2022/08/07 04:24:52;;;;;;;2.83;2.60;;;12.30;99.90;;;;;;5097190;28;20204;-88
2022/08/07 04:27:18;;;;;;;3.40;2.40;;;12.30;99.90;;;;;;5098936;28;20192;-89
2022/08/07 04:29:45;;;;;;;3.73;2.90;;;12.30;99.90;;;;;;5099064;28;20211;-88
2022/08/07 04:32:13;;;;;;;2.50;2.30;;;12.30;99.90;;;;;;5098820;28;20193;-88
2022/08/07 04:34:40;;;;;;;2.83;2.40;;;12.30;99.90;;;;;;5099305;28;20224;-90
2022/08/07 04:37:07;;;;;;;3.37;2.40;;;12.30;99.90;;;;;;5098946;28;20228;-87
2022/08/07 04:39:36;;;;;;;3.17;2.50;;;12.30;99.90;;;;;;5098433;28;20201;-88
2022/08/07 04:42:03;;;;;;;2.60;2.30;;;12.30;99.90;;;;;;5099074;28;20193;-87
2022/08/07 04:44:30;;;;;;;2.53;2.27;;;12.30;99.90;;;;;;5098934;28;20571;-89
2022/08/07 04:47:05;;;;;;;2.50;2.30;;;12.30;99.90;;;;;;5098492;28;20219;-87
2022/08/07 04:49:41;;;;;;;3.07;2.77;;;12.30;99.90;;;;;;5098879;28;20250;-87
2022/08/07 04:52:14;;;;;;;3.63;2.80;;;12.30;99.90;;;;;;5098624;28;20567;-87
2022/08/07 04:54:50;;;;;;;3.53;2.90;;;12.30;99.90;;;;;;5097943;28;20216;-87
2022/08/07 04:57:26;;;;;;;3.03;2.73;;;12.30;99.90;;;;;;5098572;28;20210;-87
2022/08/07 04:59:58;;;;;;;3.30;2.40;;;12.40;99.90;;;;;;5099020;28;20192;-87
2022/08/07 05:02:30;;;;;;;3.40;2.90;;;12.40;99.90;;;;;;5098204;28;20275;-88
2022/08/07 05:05:04;;;;;;;3.00;2.80;;;12.40;99.90;;;;;;5099028;28;20292;-86
2022/08/07 05:07:37;;;;;;;2.90;2.60;;;12.40;99.90;;;;;;5097365;28;20200;-88
2022/08/07 05:10:11;;;;;;;2.80;2.60;;;12.40;99.90;;;;;;5097614;28;20239;-88
2022/08/07 05:12:42;;;;;;;3.20;2.90;;;12.40;99.90;;;;;;5097812;28;20213;-88
2022/08/07 05:15:23;;;;;;;2.70;2.50;;;12.50;99.90;;;;;;5092740;28;20213;-87
2022/08/07 05:17:57;;;;;;;2.43;2.23;;;12.50;99.90;;;;;;5077163;28;20236;-88
2022/08/07 05:20:26;;;;;;;2.70;2.40;;;12.50;99.90;;;;;;5077519;28;20193;-88
2022/08/07 05:22:59;;;;;;;2.57;2.37;;;12.60;99.90;;;;;;5091153;28;20231;-87
2022/08/07 05:25:28;;;;;;;2.70;2.50;;;12.60;99.90;;;;;;5099617;28;20581;-87
2022/08/07 05:27:57;;;;;;;2.57;2.30;;;12.60;99.90;;;;;;5100034;28;20605;-87
2022/08/07 05:30:25;;;;;;;3.23;2.77;;;12.60;99.90;;;;;;5083915;28;20205;-88
2022/08/07 05:32:54;;;;;;;3.67;2.93;;;12.70;99.90;;;;;;5079016;28;20280;-87
2022/08/07 05:35:21;;;;;;;3.93;2.70;;;12.70;99.90;;;;;;5077959;28;20240;-90
2022/08/07 05:37:49;;;;;;;3.43;2.97;;;12.70;99.90;;;;;;5078487;28;20489;-88
2022/08/07 05:40:17;;;;;;;3.53;2.90;;;12.80;99.90;;;;;;5098286;28;20210;-89
2022/08/07 05:42:46;;;;;;;3.87;3.20;;;12.80;99.90;;;;;;5098535;28;20208;-88
2022/08/07 05:45:14;;;;;;;3.47;3.17;;;12.90;99.90;;;;;;5097709;28;20197;-87
2022/08/07 05:47:42;;;;;;;4.10;3.20;;;12.90;99.90;;;;;;5097802;28;20289;-86
2022/08/07 05:50:10;;;;;;;5.00;3.80;;;13.00;99.90;;;;;;5098178;28;20203;-88
2022/08/07 05:52:37;;;;;;;4.30;3.90;;;13.10;99.90;;;;;;5097184;28;20223;-87
2022/08/07 05:55:04;;;;;;;4.70;4.20;;;13.10;99.90;;;;;;5097023;28;20220;-89
2022/08/07 05:57:32;;;;;;;4.70;4.30;;;13.20;99.90;;;;;;5096694;28;20665;-91
2022/08/07 06:00:01;;;;;;;5.10;4.60;;;13.30;99.90;;;;;;5096727;28;20584;-87
2022/08/07 06:02:31;;;;;;;4.87;4.13;;;13.40;99.90;;;;;;5096344;28;20604;-88
2022/08/07 06:05:04;;;;;;;7.73;5.03;;;13.60;99.90;;;;;;5097131;28;20639;-88
2022/08/07 06:07:32;;;;;;;5.57;5.03;;;13.90;99.90;;;;;;5097313;28;20189;-89
2022/08/07 06:10:00;;;;;;;6.43;5.60;;;14.30;99.90;;;;;;5096796;28;20311;-88
2022/08/07 06:12:28;;;;;;;6.00;5.50;;;14.60;99.90;;;;;;5096653;28;20201;-87
2022/08/07 06:14:57;;;;;;;6.43;5.40;;;15.00;99.90;;;;;;5096867;28;20536;-88
2022/08/07 06:17:27;;;;;;;6.43;5.47;;;15.40;99.90;;;;;;5096765;28;20204;-88
2022/08/07 06:19:54;;;;;;;6.53;5.77;;;15.70;99.90;;;;;;5092596;28;20201;-89
2022/08/07 06:22:22;;;;;;;5.97;5.37;;;16.10;99.90;;;;;;5090943;28;20204;-90
2022/08/07 06:24:49;;;;;;;6.60;5.90;;;16.50;99.90;;;;;;5086108;28;20196;-88
2022/08/07 06:27:21;;;;;;;7.27;6.57;;;16.80;99.90;;;;;;5096965;28;20219;-88
2022/08/07 06:29:48;;;;;;;6.47;5.88;;;17.20;99.90;;;;;;5076869;28;20201;-88
2022/08/07 06:32:15;;;;;;;5.88;5.28;;;17.50;99.90;;;;;;5076469;28;20204;-89
2022/08/07 06:34:43;;;;;;;6.72;6.05;;;17.90;99.90;;;;;;5080709;28;20216;-87
2022/08/07 06:37:11;;;;;;;6.43;5.22;;;18.10;99.90;;;;;;5096520;28;20231;-88
2022/08/07 06:39:38;;;;;;;5.40;4.90;;;18.40;58.70;;;;;;5096072;28;20218;-88
2022/08/07 06:42:08;;;;;;;5.25;4.78;;;18.70;41.10;;;;;;5096182;28;20200;-87
2022/08/07 06:44:37;;;;;;;5.30;4.80;;;18.90;1.00;;;;;;5095843;28;20201;-87
2022/08/07 06:47:04;;;;;;;5.15;4.47;;;19.10;1.00;;;;;;5094956;28;20203;-84
2022/08/07 06:49:32;;;;;;;5.22;4.72;;;19.40;1.00;;;;;;5095477;28;20280;-86
2022/08/07 06:52:01;;;;;;;6.53;4.68;;;19.70;1.00;;;;;;5095357;28;20201;-84
2022/08/07 06:54:30;;;;;;;4.78;4.32;;;19.90;1.00;;;;;;5095579;28;20284;-85
2022/08/07 06:56:59;;;;;;;5.53;4.40;;;20.20;1.00;;;;;;5094949;28;20224;-84
2022/08/07 06:59:32;;;;;;;5.22;4.72;;;20.40;1.00;;;;;;5091197;28;20544;-83
2022/08/07 07:02:02;;;;;;;5.00;4.32;;;20.70;1.00;;;;;;5090316;28;20294;-83
2022/08/07 07:04:30;;;;;;;4.13;3.67;;;20.90;1.00;;;;;;5085462;28;20196;-83
2022/08/07 07:06:58;;;;;;;3.40;3.10;;;21.10;1.00;;;;;;5090323;28;20193;-86
2022/08/07 07:09:28;;;;;;;5.03;3.13;;;21.20;99.90;;;;;;5086292;28;20641;-86
2022/08/07 07:12:11;;;;;;;4.45;2.90;;;21.40;99.90;;;;;;5093582;28;20287;-85
2022/08/07 07:14:44;;;;;;;4.05;3.10;;;21.70;1.00;;;;;;5081008;28;20204;-85
2022/08/07 07:17:20;;;;;;;4.13;2.92;;;21.90;1.00;;;;;;5082202;28;20604;-87
2022/08/07 07:19:52;;;;;;;4.35;2.95;;;22.10;99.90;;;;;;5093826;28;20208;-87
2022/08/07 07:22:20;;;;;;;4.00;2.65;;;22.30;1.00;;;;;;5096885;28;20224;-88
2022/08/07 07:24:49;;;;;;;3.25;2.78;;;22.60;1.00;;;;;;5098563;28;20196;-91
2022/08/07 07:27:18;;;;;;;3.30;2.97;;;22.90;99.90;;;;;;5097549;28;20204;-88
2022/08/07 07:29:49;;;;;;;3.20;2.70;;;23.10;1.00;;;;;;5097679;28;20196;-90
2022/08/07 07:32:17;;;;;;;4.07;3.08;;;23.20;1.00;;;;;;5110799;28;20216;-90
2022/08/07 07:34:47;;;;;;;3.15;2.95;;;23.20;1.00;;;;;;5101973;28;20211;-88
2022/08/07 07:37:16;;;;;;;3.92;3.00;;;23.50;1.00;;;;;;5098364;28;20243;-83
2022/08/07 07:39:45;;;;;;;4.35;3.10;;;23.80;1.00;;;;;;5100182;28;20216;-85
2022/08/07 07:42:15;;;;;;;3.70;3.40;;;24.20;1.00;;;;;;5104525;28;20197;-86
2022/08/07 07:44:45;;;;;;;4.68;3.30;;;24.20;1.00;;;;;;5112948;28;20215;-87
2022/08/07 07:47:14;;;;;;;3.42;3.13;;;24.00;1.00;;;;;;5104418;28;20193;-90
2022/08/07 07:49:43;;;;;;;3.38;2.78;;;24.00;1.00;;;;;;5096825;28;20204;-91
2022/08/07 07:52:11;;;;;;;4.70;3.30;;;24.20;1.00;;;;;;5097372;28;20215;-91
2022/08/07 07:54:41;;;;;;;3.65;2.92;;;24.50;1.00;;;;;;5099959;28;20196;-89
2022/08/07 07:57:09;;;;;;;5.47;3.40;;;24.70;1.00;;;;;;5079037;28;20228;-91
2022/08/07 07:59:39;;;;;;;4.25;3.13;;;24.80;99.90;;;;;;5074738;28;20686;-91
2022/08/07 08:02:07;;;;;;;4.53;3.67;;;24.80;99.90;;;;;;5078980;28;20275;-91
2022/08/07 08:04:37;;;;;;;3.33;3.00;;;24.90;99.90;;;;;;5094732;28;20563;-94
2022/08/07 08:07:05;;;;;;;4.10;3.00;;;25.10;99.90;;;;;;5095209;28;20189;-91
2022/08/07 08:09:34;;;;;;;2.90;2.60;;;25.30;99.90;;;;;;5094773;28;20821;-91
2022/08/07 08:12:02;;;;;;;4.38;3.40;;;25.50;99.90;;;;;;5094443;28;20204;-92
2022/08/07 08:14:30;;;;;;;4.45;2.35;;;25.80;99.90;;;;;;5094518;28;20200;-87
2022/08/07 08:17:00;;;;;;;5.65;2.42;;;25.90;99.90;;;;;;5080388;28;20431;-85
2022/08/07 08:19:29;;;;;;;4.25;1.90;;;26.00;99.90;;;;;;5073597;28;20185;-85
2022/08/07 08:27:33;;;;;;;4.28;2.33;;;26.30;99.90;;;;;;5091384;28;20253;-83
2022/08/07 08:30:05;;;;;;;3.40;1.50;;;25.90;99.90;;;;;;5085517;28;20219;-83
2022/08/07 08:32:38;;;;;;;2.13;1.58;;;25.20;99.90;;;;;;5088188;28;20193;-83
2022/08/07 08:35:08;;;;;;;2.03;1.45;;;24.70;99.90;;;;;;5084606;28;20199;-84
2022/08/07 08:37:37;;;;;;;3.35;1.48;;;24.70;99.90;;;;;;5090661;28;20240;-84
2022/08/07 08:40:11;;;;;;;1.75;1.50;;;24.90;99.90;;;;;;5090096;28;20197;-80
2022/08/07 08:42:45;;;;;;;4.38;1.40;;;25.10;99.90;;;;;;5073675;28;20188;-88
2022/08/07 08:45:21;;;;;;;2.97;1.27;;;25.50;99.90;;;;;;5073110;28;20213;-88
2022/08/07 08:48:02;;;;;;;2.95;1.50;;;25.80;99.90;;;;;;5073714;28;20228;-87
2022/08/07 08:50:34;;;;;;;2.08;1.35;;;25.70;99.90;;;;;;5072703;28;20197;-83
2022/08/07 08:53:06;;;;;;;2.28;1.35;;;25.70;99.90;;;;;;5071987;28;20267;-81
2022/08/07 08:55:38;;;;;;;2.65;1.63;;;25.80;99.90;;;;;;5073115;28;20256;-87
2022/08/07 08:58:12;;;;;;;2.42;1.55;;;26.00;99.90;;;;;;5081954;28;20277;-88
2022/08/07 09:00:44;;;;;;;3.13;1.50;;;26.00;99.90;;;;;;5085530;28;20204;-81
2022/08/07 09:03:24;;;;;;;3.15;1.52;;;26.00;99.90;;;;;;5073086;28;20193;-88
2022/08/07 09:05:58;;;;;;;3.35;1.60;;;26.00;99.90;;;;;;5093008;28;20207;-91
2022/08/07 09:08:37;;;;;;;1.70;1.15;;;26.20;99.90;;;;;;5084543;28;20680;-87
2022/08/07 09:11:16;;;;;;;2.30;1.40;;;26.40;99.90;;;;;;5085741;28;20807;-84
2022/08/07 09:13:50;;;;;;;2.35;1.33;;;26.50;99.90;;;;;;5091612;28;20607;-83
2022/08/07 09:16:26;;;;;;;3.30;1.45;;;26.60;99.90;;;;;;5074571;28;20212;-81
2022/08/07 09:19:10;;;;;;;3.78;1.40;;;26.50;99.90;;;;;;5082083;28;20211;-84
2022/08/07 09:21:47;;;;;;;1.92;1.40;;;26.40;99.90;;;;;;5081500;28;20341;-81
2022/08/07 09:24:34;;;;;;;2.83;1.50;;;26.40;99.90;;;;;;5093220;28;20275;-88
2022/08/07 09:27:12;;;;;;;1.20;1.05;;;26.60;99.90;;;;;;5086755;28;20198;-83
2022/08/07 09:29:54;;;;;;;3.78;1.98;;;26.80;99.90;;;;;;5080431;28;20276;-82
2022/08/07 09:32:30;;;;;;;1.60;1.33;;;26.70;99.90;;;;;;5081097;28;20226;-84
2022/08/07 09:35:07;;;;;;;4.13;1.50;;;27.00;99.90;;;;;;5090574;28;20840;-86
2022/08/07 09:37:41;;;;;;;1.35;1.25;;;27.20;99.90;;;;;;5078151;28;20232;-81
2022/08/07 09:40:19;;;;;;;2.05;1.20;;;27.20;99.90;;;;;;5081277;28;20209;-82
2022/08/07 09:42:55;;;;;;;2.47;1.38;;;27.10;99.90;;;;;;5094477;28;20215;-82
2022/08/07 09:45:34;;;;;;;2.35;1.52;;;27.10;99.90;;;;;;5094839;28;20220;-82
2022/08/07 09:48:19;;;;;;;2.55;1.30;;;26.90;99.90;;;;;;5094600;28;20275;-80
2022/08/07 09:51:05;;;;;;;1.98;1.50;;;26.70;99.90;;;;;;5094737;28;20193;-83
2022/08/07 09:53:37;;;;;;;1.40;1.05;;;26.80;99.90;;;;;;5093987;28;20253;-81
2022/08/07 09:56:33;;;;;;;2.05;1.40;;;26.70;99.90;;;;;;5087989;28;20215;-80
2022/08/07 09:59:26;;;;;;;2.03;1.38;;;26.50;99.90;;;;;;5088898;28;20220;-83
2022/08/07 10:02:08;;;;;;;1.42;1.33;;;26.40;99.90;;;;;;5094000;28;20208;-80
2022/08/07 10:04:56;;;;;;;2.60;1.50;;;26.30;99.90;;;;;;5093885;28;20199;-79
2022/08/07 10:07:56;;;;;;;2.90;1.50;;;26.50;99.90;;;;;;5094598;28;20279;-81
2022/08/07 10:10:35;;;;;;;1.80;1.65;;;26.60;99.90;;;;;;5091687;28;20246;-81
2022/08/07 10:13:35;;;;;;;3.25;1.90;;;26.70;99.90;;;;;;5080191;28;20189;-82
2022/08/07 10:16:16;;;;;;;4.10;1.67;;;26.60;99.90;;;;;;5082274;28;20220;-82
2022/08/07 10:19:04;;;;;;;1.73;1.55;;;26.70;99.90;;;;;;5084552;28;20193;-82
2022/08/07 10:21:42;;;;;;;1.83;1.50;;;26.90;99.90;;;;;;5074220;28;20204;-83
2022/08/07 10:24:32;;;;;;;1.50;1.40;;;27.00;99.90;;;;;;5073853;28;20228;-81
2022/08/07 10:27:21;;;;;;;1.77;1.58;;;27.00;99.90;;;;;;5084421;28;20737;-84
2022/08/07 10:30:02;;;;;;;2.13;1.52;;;27.20;99.90;;;;;;5094100;28;20607;-81
2022/08/07 10:33:16;;;;;;;3.42;2.00;;;27.40;99.90;;;;;;5092314;28;20204;-83
2022/08/07 10:36:04;;;;;;;2.72;1.63;;;27.10;99.90;;;;;;5053881;28;20569;-81
2022/08/07 10:38:48;;;;;;;2.47;1.80;;;27.10;99.90;;;;;;5087452;28;20488;-81
2022/08/07 10:41:25;;;;;;;1.55;1.45;;;27.00;99.90;;;;;;5082036;28;20200;-83
2022/08/07 10:44:02;;;;;;;1.73;1.63;;;27.10;99.90;;;;;;5085284;28;20696;-86
2022/08/07 10:46:37;;;;;;;3.10;1.83;;;27.00;99.90;;;;;;5087467;28;20206;-86
2022/08/07 10:49:13;;;;;;;1.85;1.52;;;27.20;99.90;;;;;;5093556;28;20188;-88
2022/08/07 10:51:50;;;;;;;2.20;1.55;;;27.50;99.90;;;;;;5090723;28;20204;-82
2022/08/07 10:54:26;;;;;;;2.25;1.50;;;27.50;99.90;;;;;;5093566;28;20181;-85
2022/08/07 10:57:06;;;;;;;1.35;1.25;;;27.60;99.90;;;;;;5090545;28;20204;-83
2022/08/07 10:59:41;;;;;;;1.23;1.13;;;27.60;99.70;;;;;;5093420;28;20208;-83
2022/08/07 11:02:18;;;;;;;2.42;1.50;;;27.70;99.70;;;;;;5093713;28;20207;-82
2022/08/07 11:05:00;;;;;;;3.75;1.40;;;27.80;97.50;;;;;;5093831;28;20196;-85
2022/08/07 11:07:50;;;;;;;3.28;1.30;;;27.60;94.50;;;;;;5093524;28;20208;-81
2022/08/07 11:10:25;;;;;;;3.03;1.40;;;27.40;94.20;;;;;;5092869;28;20270;-85
2022/08/07 11:13:02;;;;;;;2.38;1.63;;;27.30;93.40;;;;;;5082289;28;20189;-86
2022/08/07 11:15:34;;;;;;;3.20;1.35;;;27.30;93.30;;;;;;5074222;28;20669;-91
2022/08/07 11:18:06;;;;;;;2.70;1.73;;;27.20;95.00;;;;;;5074522;28;20213;-84
2022/08/07 11:20:41;;;;;;;2.42;1.60;;;27.00;92.10;;;;;;5072784;28;20204;-83
2022/08/07 11:23:17;;;;;;;2.85;1.50;;;26.70;93.30;;;;;;5073543;28;20220;-85
2022/08/07 11:25:50;;;;;;;3.20;1.55;;;26.70;94.70;;;;;;5073925;28;20605;-87
2022/08/07 11:28:23;;;;;;;2.15;1.77;;;26.90;96.40;;;;;;5086626;28;20623;-85
2022/08/07 11:31:00;;;;;;;2.80;1.60;;;27.00;96.40;;;;;;5079139;28;20181;-84
2022/08/07 11:33:41;;;;;;;3.85;1.88;;;27.00;95.10;;;;;;5081413;28;20212;-82
2022/08/07 11:36:18;;;;;;;2.40;1.80;;;27.10;95.20;;;;;;5092282;28;20201;-83
2022/08/07 11:38:53;;;;;;;1.88;1.50;;;27.10;96.80;;;;;;5093929;28;20191;-82
2022/08/07 11:41:28;;;;;;;2.95;1.70;;;27.20;96.80;;;;;;5091721;28;20287;-83
2022/08/07 11:44:05;;;;;;;3.15;1.98;;;27.20;93.00;;;;;;5093155;28;20278;-84
2022/08/07 11:46:46;;;;;;;3.13;1.85;;;27.30;93.20;;;;;;5092642;28;20177;-84
2022/08/07 11:49:30;;;;;;;3.30;1.80;;;27.20;94.10;;;;;;5091725;28;20236;-85
2022/08/07 11:52:08;;;;;;;2.45;1.88;;;27.30;96.10;;;;;;5092894;28;20192;-84
2022/08/07 11:54:46;;;;;;;2.78;1.60;;;27.30;92.70;;;;;;5092888;28;20193;-84
2022/08/07 11:57:22;;;;;;;3.08;1.77;;;27.30;95.60;;;;;;5071597;28;20232;-84
2022/08/07 12:00:12;;;;;;;4.47;2.10;;;27.40;92.60;;;;;;5072345;28;20236;-85
2022/08/07 12:03:09;;;;;;;2.13;1.92;;;27.00;91.30;;;;;;5072946;28;20201;-84
2022/08/07 12:05:48;;;;;;;4.47;1.90;;;27.00;92.90;;;;;;5072634;28;20186;-84
2022/08/07 12:08:20;;;;;;;2.05;1.70;;;26.90;91.70;;;;;;5072180;28;20200;-83
2022/08/07 12:10:51;;;;;;;2.97;1.80;;;26.70;91.40;;;;;;5080165;28;20636;-88
2022/08/07 12:13:25;;;;;;;5.57;1.70;;;26.80;92.80;;;;;;5093186;28;20271;-86
2022/08/07 12:15:59;;;;;;;2.60;1.73;;;26.80;91.80;;;;;;5093282;28;20200;-83
2022/08/07 12:18:32;;;;;;;2.22;1.70;;;26.80;92.90;;;;;;5093003;28;20240;-82
2022/08/07 12:21:12;;;;;;;2.25;1.60;;;27.00;94.70;;;;;;5073552;28;20524;-86
2022/08/07 12:23:46;;;;;;;4.63;1.92;;;27.00;90.00;;;;;;5074180;28;20193;-84
2022/08/07 12:26:22;;;;;;;2.58;2.08;;;26.70;90.90;;;;;;5089252;28;20193;-87
2022/08/07 12:28:58;;;;;;;3.60;2.30;;;26.70;90.60;;;;;;5093197;28;20220;-85
2022/08/07 12:31:36;;;;;;;4.07;1.80;;;26.70;87.40;;;;;;5086367;28;20247;-83
2022/08/07 12:34:04;;;;;;;2.00;1.85;;;26.50;90.30;;;;;;5072710;28;20272;-83
2022/08/07 12:36:33;;;;;;;3.38;1.90;;;26.40;90.50;;;;;;5072421;28;20300;-84
2022/08/07 12:39:03;;;;;;;2.85;1.45;;;26.50;90.60;;;;;;5084488;28;20288;-87
2022/08/07 12:41:33;;;;;;;3.50;1.95;;;26.50;90.10;;;;;;5092673;28;20556;-84
2022/08/07 12:44:07;;;;;;;3.17;2.00;;;26.50;94.00;;;;;;5093192;28;20283;-89
2022/08/07 12:46:50;;;;;;;2.25;1.70;;;26.50;92.80;;;;;;5096286;28;20206;-83
2022/08/07 12:49:24;;;;;;;2.75;1.95;;;26.30;91.00;;;;;;5076618;28;20197;-89
2022/08/07 12:52:01;;;;;;;2.45;1.70;;;26.30;93.70;;;;;;5076049;28;20204;-85
2022/08/07 12:54:36;;;;;;;1.85;1.40;;;26.30;89.90;;;;;;5076851;28;20197;-86
2022/08/07 12:57:05;;;;;;;3.88;1.90;;;26.30;94.80;;;;;;5093826;28;20220;-86
2022/08/07 12:59:35;;;;;;;3.30;1.70;;;26.20;96.40;;;;;;5096103;28;20189;-83
2022/08/07 13:02:25;;;;;;;4.15;2.17;;;26.30;96.30;;;;;;5096718;28;20208;-84
2022/08/07 13:05:09;;;;;;;5.88;2.13;;;26.30;91.10;;;;;;5096894;28;20204;-84
2022/08/07 13:07:51;;;;;;;4.25;1.80;;;26.20;92.40;;;;;;5096392;28;20219;-89
2022/08/07 13:10:31;;;;;;;4.25;2.10;;;26.20;95.00;;;;;;5096821;28;20244;-84
2022/08/07 13:13:14;;;;;;;3.65;2.22;;;26.00;92.50;;;;;;5097072;28;20199;-85
2022/08/07 13:15:50;;;;;;;2.45;1.85;;;25.80;90.00;;;;;;5097002;28;20176;-85
2022/08/07 13:18:31;;;;;;;4.80;2.40;;;25.50;95.30;;;;;;5084082;28;20308;-86
2022/08/07 13:21:12;;;;;;;7.53;2.40;;;25.50;99.20;;;;;;5076340;28;20250;-90